中部国際空港の過去48時間の天気

中部国際空港 (Chubu Centrair International)

現在時刻: 2/23 21:49 JST (2/23 12:49 UTC) 以下の時間は現地時間です。

過去48時間のMETAR気象情報
時間 風向 風速(m/s) 視程 気温(℃) 湿度(%) 気圧(hPa) 天気現象
23 21:00 6 10km以上 5 75 1024
23 20:30 北北西 9 10km以上 7 66 1024
23 20:00 北北西 11 10km以上 7 66 1024
23 19:30 北北西 10 10km以上 7 70 1023
23 19:00 北北西 11 10km以上 7 66 1023
23 18:30 11 10km以上 7 57 1023
23 18:00 北北西 11 10km以上 8 53 1023
23 17:30 北北西 11 10km以上 8 46 1022
23 17:00 北北西 9 10km以上 9 43 1021
23 16:30 北北西 10 10km以上 10 37 1021
23 16:00 北北西 11 10km以上 10 43 1020
23 15:30 北北西 11 10km以上 10 37 1020
23 15:00 北北西 11 10km以上 10 37 1019
23 14:30 北北西 9 10km以上 11 32 1019
23 14:00 北北西 7 10km以上 11 37 1019
23 13:30 6 10km以上 11 30 1019
23 13:00 北北西 7 10km以上 11 32 1019
23 12:30 北北西 4 10km以上 9 40 1019
23 12:00 北北西 4 10km以上 9 43 1020
23 11:30 北西 3 10km以上 8 57 1020
23 11:00 北西 2 10km以上 7 57 1021
23 10:30 西北西 3 10km以上 7 57 1021
23 10:00 北西 4 10km以上 7 61 1021
23 09:30 北西 3 10km以上 6 61 1021
23 09:00 北北西 4 10km以上 6 61 1021
23 08:30 北北西 3 10km以上 6 61 1021
23 08:00 北北西 3 10km以上 5 65 1021
23 07:30 北西 5 10km以上 5 65 1020
23 07:00 3 10km以上 3 75 1020
23 06:30 北北西 5 10km以上 3 65 1020
23 06:00 北北西 5 10km以上 2 75 1020
23 05:30 5 10km以上 3 70 1019
23 05:00 5 10km以上 3 65 1019
23 04:30 6 10km以上 4 60 1019
23 04:00 6 10km以上 3 70 1019
23 03:30 5 10km以上 3 70 1019
23 03:00 6 10km以上 3 70 1019
23 02:30 6 10km以上 3 70 1019
23 02:00 5 10km以上 4 65 1019
23 01:30 5 10km以上 5 61 1019
23 01:00 5 10km以上 6 57 1019
23 00:30 5 10km以上 6 57 1019
23 00:00 5 10km以上 6 57 1019
22 23:30 5 10km以上 7 57 1019
22 23:00 北北西 4 10km以上 7 57 1019
22 22:30 4 10km以上 7 57 1019
22 22:00 4 10km以上 7 57 1019
22 21:30 4 10km以上 7 57 1019
22 21:00 北西 4 10km以上 7 53 1019
22 20:30 西北西 4 10km以上 8 57 1018
22 20:00 西 3 10km以上 8 53 1019
22 19:30 西 3 10km以上 8 49 1019
22 19:00 西南西 3 10km以上 8 49 1018
22 18:30 西南西 4 10km以上 8 49 1018
22 18:00 南西 5 10km以上 8 53 1018
22 17:30 南西 5 10km以上 8 53 1018
22 17:00 南西 5 10km以上 8 53 1018
22 16:30 南南西 4 10km以上 8 49 1017
22 16:00 南南西 4 10km以上 8 46 1017
22 15:30 南南西 3 10km以上 8 39 1017
22 15:00 西 2 10km以上 9 37 1017
22 14:30 西北西 2 10km以上 9 37 1017
22 14:00 西北西 2 10km以上 8 39 1018
22 09:30 4 10km以上 5 56 1020
22 09:00 4 10km以上 4 56 1021
22 08:30 北北東 4 10km以上 4 60 1021
22 08:00 北東 4 10km以上 3 70 1021
22 07:30 北北東 4 10km以上 3 75 1020
22 07:00 北東 3 10km以上 2 81 1020
22 06:30 5 10km以上 2 81 1020
22 06:00 北西 5 10km以上 3 81 1020
22 05:30 西北西 6 10km以上 5 75 1019
22 05:00 西北西 6 10km以上 5 75 1019
22 04:30 西北西 7 10km以上 5 75 1019
22 04:00 西北西 7 10km以上 5 70 1019
22 03:30 西北西 7 10km以上 5 75 1019
22 03:00 西北西 7 10km以上 5 70 1019
22 02:30 西北西 6 10km以上 4 75 1019
22 02:00 西北西 6 10km以上 5 70 1018
22 01:30 西北西 6 10km以上 5 75 1018
22 01:00 西北西 6 10km以上 5 65 1019
21 23:30 北西 4 10km以上 5 65 1018
21 23:00 北西 6 10km以上 5 70 1018
21 22:30 北西 7 10km以上 5 70 1018
21 22:00 北西 8 10km以上 5 70 1018
RJGG 231200Z 35012KT 9999 FEW030 05/01 Q1024 NOSIG
RJGG 231130Z 34018KT 9999 FEW030 07/01 Q1024 NOSIG
RJGG 231100Z 33021KT 9999 FEW030 07/01 Q1024 NOSIG
RJGG 231030Z 34020KT 9999 FEW030 07/02 Q1023 NOSIG
RJGG 231000Z 34021KT 9999 FEW030 07/01 Q1023 NOSIG
RJGG 230930Z 35022KT 9999 FEW030 07/M01 Q1023 NOSIG
RJGG 230900Z 34021KT 9999 FEW030 08/M01 Q1023 NOSIG
RJGG 230830Z 34022KT 9999 FEW030 08/M03 Q1022 NOSIG
RJGG 230800Z 34018KT 9999 FEW030 09/M03 Q1021 NOSIG
RJGG 230730Z 34019KT 9999 FEW030 10/M04 Q1021 NOSIG
RJGG 230700Z 33021KT 9999 FEW030 10/M02 Q1020 NOSIG
RJGG 230630Z 33022KT 9999 FEW030 10/M04 Q1020 NOSIG
RJGG 230600Z 34021KT 9999 FEW030 10/M04 Q1019 NOSIG
RJGG 230530Z 33017KT 9999 FEW030 11/M05 Q1019 NOSIG
RJGG 230500Z 34014KT 9999 FEW030 11/M03 Q1019 NOSIG
RJGG 230430Z 35012KT 9999 FEW030 11/M06 Q1019 NOSIG
RJGG 230400Z 34014KT 9999 FEW030 11/M05 Q1019 NOSIG
RJGG 230330Z 33008KT 9999 FEW030 09/M04 Q1019 BECMG 32022KT
RJGG 230300Z 33007KT 9999 FEW030 09/M03 Q1020 BECMG 32018KT
RJGG 230230Z 32005KT 9999 FEW030 08/M00 Q1020 BECMG 32016KT
RJGG 230200Z 31004KT 9999 FEW030 07/M01 Q1021 BECMG 32016KT
RJGG 230130Z 29006KT 9999 FEW030 07/M01 Q1021 NOSIG
RJGG 230100Z 31007KT 9999 FEW030 07/M00 Q1021 NOSIG
RJGG 230030Z 31006KT 9999 FEW030 06/M01 Q1021 NOSIG
RJGG 230000Z 33008KT 9999 FEW030 06/M01 Q1021 NOSIG
RJGG 222330Z 34006KT 9999 FEW030 SCT/// 06/M01 Q1021 NOSIG
RJGG 222300Z 33006KT 9999 FEW030 BKN/// 05/M01 Q1021 NOSIG
RJGG 222230Z 32009KT 9999 FEW030 BKN/// 05/M01 Q1020 NOSIG
RJGG 222200Z 35006KT 9999 FEW030 BKN/// 03/M01 Q1020 NOSIG
RJGG 222130Z 33009KT 9999 FEW030 BKN/// 03/M03 Q1020 NOSIG
RJGG 222100Z 34009KT 9999 FEW030 BKN/// 02/M02 Q1020 NOSIG
RJGG 222030Z 35010KT 9999 FEW030 SCT/// 03/M02 Q1019 NOSIG
RJGG 222000Z 35010KT 9999 FEW030 SCT/// 03/M03 Q1019 NOSIG
RJGG 221930Z 36011KT 9999 FEW030 04/M03 Q1019 NOSIG
RJGG 221900Z 35011KT 9999 FEW030 03/M02 Q1019 NOSIG
RJGG 221830Z 35010KT 9999 FEW030 03/M02 Q1019 NOSIG
RJGG 221800Z 35011KT 9999 FEW030 03/M02 Q1019 NOSIG
RJGG 221730Z 35011KT 9999 FEW030 03/M02 Q1019 NOSIG
RJGG 221700Z 35010KT 9999 FEW030 SCT/// 04/M02 Q1019 NOSIG
RJGG 221630Z 35010KT 9999 FEW030 BKN080 05/M02 Q1019 NOSIG
RJGG 221600Z 36010KT 9999 FEW030 BKN060 BKN080 06/M02 Q1019 NOSIG
RJGG 221530Z 35010KT 9999 FEW030 BKN060 BKN080 06/M02 Q1019 NOSIG
RJGG 221500Z 35009KT 9999 FEW030 BKN060 BKN080 06/M02 Q1019 NOSIG
RJGG 221430Z 35009KT 9999 FEW030 BKN060 BKN080 07/M01 Q1019 NOSIG
RJGG 221400Z 34007KT 9999 FEW030 BKN060 BKN080 07/M01 Q1019 NOSIG
RJGG 221330Z 35008KT 9999 FEW030 BKN060 07/M01 Q1019 NOSIG
RJGG 221300Z 35008KT 9999 FEW030 BKN060 07/M01 Q1019 NOSIG
RJGG 221230Z 35008KT 9999 FEW030 BKN060 07/M01 Q1019 NOSIG
RJGG 221200Z 32008KT 9999 FEW030 BKN060 07/M02 Q1019 NOSIG
RJGG 221130Z 30008KT 9999 FEW030 BKN060 08/M00 Q1018 NOSIG
RJGG 221100Z 28006KT 9999 FEW030 BKN060 BKN140 08/M01 Q1019 NOSIG
RJGG 221030Z 28006KT 9999 FEW030 BKN140 BKN/// 08/M02 Q1019 NOSIG
RJGG 221000Z 25006KT 9999 FEW030 BKN150 BKN/// 08/M02 Q1018 BECMG 30005KT
RJGG 220930Z 24008KT 9999 FEW030 SCT060 BKN160 08/M02 Q1018 BECMG 30005KT
RJGG 220900Z 23010KT 9999 FEW030 SCT160 BKN/// 08/M01 Q1018 BECMG 30005KT
RJGG 220830Z 22010KT 9999 FEW030 BKN/// 08/M01 Q1018 BECMG 30005KT
RJGG 220800Z 22009KT 9999 FEW030 BKN/// 08/M01 Q1018 BECMG 30005KT
RJGG 220730Z 21008KT 9999 FEW030 BKN/// 08/M02 Q1017 BECMG 30005KT
RJGG 220700Z 21007KT 9999 FEW030 BKN/// 08/M03 Q1017 BECMG 30005KT
RJGG 220630Z 21005KT 9999 FEW030 BKN/// 08/M05 Q1017 BECMG 30005KT
RJGG 220600Z 26004KT 9999 FEW030 BKN/// 09/M05 Q1017 BECMG 30005KT
RJGG 220530Z 30003KT 9999 FEW030 BKN/// 09/M05 Q1017 NOSIG
RJGG 220500Z 29003KT 9999 FEW030 BKN/// 08/M05 Q1018 NOSIG
RJGG 220030Z 01008KT 9999 FEW030 BKN/// 05/M03 Q1020 NOSIG
RJGG 220000Z 01007KT 9999 FEW030 BKN/// 04/M04 Q1021 NOSIG
RJGG 212330Z 02007KT 9999 FEW030 SCT/// 04/M03 Q1021 NOSIG
RJGG 212300Z 04008KT 9999 FEW030 SCT/// 03/M02 Q1021 NOSIG
RJGG 212230Z 02008KT 9999 FEW030 SCT/// 03/M01 Q1020 NOSIG
RJGG 212200Z 04006KT 9999 FEW030 SCT/// 02/M01 Q1020 NOSIG
RJGG 212130Z 36010KT 9999 FEW030 02/M01 Q1020 NOSIG
RJGG 212100Z 31009KT 9999 FEW030 SCT/// 03/M00 Q1020 NOSIG
RJGG 212030Z 29011KT CAVOK 05/01 Q1019 NOSIG
RJGG 212000Z 30012KT CAVOK 05/01 Q1019 NOSIG
RJGG 211930Z 30014KT CAVOK 05/01 Q1019 NOSIG
RJGG 211900Z 30014KT CAVOK 05/00 Q1019 NOSIG
RJGG 211830Z 30014KT CAVOK 05/01 Q1019 NOSIG
RJGG 211800Z 30013KT CAVOK 05/00 Q1019 NOSIG
RJGG 211730Z 30011KT CAVOK 04/00 Q1019 NOSIG
RJGG 211700Z 30011KT CAVOK 05/M00 Q1018 NOSIG
RJGG 211630Z 29012KT CAVOK 05/01 Q1018 NOSIG
RJGG 211600Z 30012KT CAVOK 05/M01 Q1019 NOSIG
RJGG 211430Z 32008KT CAVOK 05/M01 Q1018 NOSIG
RJGG 211400Z 32011KT CAVOK 05/M00 Q1018 NOSIG
RJGG 211330Z 31013KT CAVOK 05/M00 Q1018 NOSIG
RJGG 211300Z 32015KT CAVOK 05/00 Q1018 NOSIG